テヘラン の空港の天気 - METARとTAF

メヘラーバード国際空港(テヘラン) ( OIII / THR ) - イラン テヘラン
飛行場実況気象(Metar)
観測時間08/17 07:30 IRDT (08/17 03:00 UTC)
風向・風速静穏 0m/s
視程10km以上
天気現象
なし
気温25℃
湿度39%
気圧1015hPa
METAROIII 170300Z 00000KT CAVOK 25/10 Q1015 A2998
過去の天気等 Google飛行場航空写真 Wunderground天気予報

過去48時間のMETAR

飛行場予報(TAF)
発表時間: 8/17 04:10 IRDT (8/16 23:40 UTC)
予報対象時間: 17日4時 IRDT ~ 18日10時 IRDT
風向・風速東南東 4m/s
視程10km以上
なし
17日16時 IRDT ~ 17日19時 IRDT に一時的に
風向・風速南南東 8m/s
TAF OIII 162340Z 1700/1806 12004MPS CAVOK
TEMPO 1712/1715 16008MPS